sensor_id;sensor_type;location;lat;lon;timestamp;temperature;humidity
22698;DHT22;11516;51.612;7.510;2022-12-18T00:00:41;-7.20;99.90
22698;DHT22;11516;51.612;7.510;2022-12-18T00:03:07;-7.20;99.90
22698;DHT22;11516;51.612;7.510;2022-12-18T00:05:33;-7.30;99.90
22698;DHT22;11516;51.612;7.510;2022-12-18T00:07:58;-7.30;99.90
22698;DHT22;11516;51.612;7.510;2022-12-18T00:10:24;-7.30;99.90
22698;DHT22;11516;51.612;7.510;2022-12-18T00:12:50;-7.30;99.90
22698;DHT22;11516;51.612;7.510;2022-12-18T00:15:15;-7.30;99.90
22698;DHT22;11516;51.612;7.510;2022-12-18T00:17:41;-7.20;99.90
22698;DHT22;11516;51.612;7.510;2022-12-18T00:20:07;-7.20;99.90
22698;DHT22;11516;51.612;7.510;2022-12-18T00:22:33;-7.20;99.90
22698;DHT22;11516;51.612;7.510;2022-12-18T00:24:58;-7.20;99.90
22698;DHT22;11516;51.612;7.510;2022-12-18T00:27:24;-7.20;99.90
22698;DHT22;11516;51.612;7.510;2022-12-18T00:29:50;-7.20;99.90
22698;DHT22;11516;51.612;7.510;2022-12-18T00:32:15;-7.30;99.90
22698;DHT22;11516;51.612;7.510;2022-12-18T00:34:41;-7.30;99.90
22698;DHT22;11516;51.612;7.510;2022-12-18T00:37:06;-7.30;99.90
22698;DHT22;11516;51.612;7.510;2022-12-18T00:39:32;-7.30;99.90
22698;DHT22;11516;51.612;7.510;2022-12-18T00:41:57;-7.10;99.90
22698;DHT22;11516;51.612;7.510;2022-12-18T00:44:41;-7.30;99.90
22698;DHT22;11516;51.612;7.510;2022-12-18T00:47:07;-7.30;99.90
22698;DHT22;11516;51.612;7.510;2022-12-18T00:49:32;-7.20;99.90
22698;DHT22;11516;51.612;7.510;2022-12-18T00:51:58;-7.30;99.90
22698;DHT22;11516;51.612;7.510;2022-12-18T00:54:23;-7.30;99.90
22698;DHT22;11516;51.612;7.510;2022-12-18T00:56:49;-7.30;99.90
22698;DHT22;11516;51.612;7.510;2022-12-18T00:59:15;-7.30;99.90
22698;DHT22;11516;51.612;7.510;2022-12-18T01:01:41;-7.40;99.90
22698;DHT22;11516;51.612;7.510;2022-12-18T01:04:07;-7.40;99.90
22698;DHT22;11516;51.612;7.510;2022-12-18T01:06:33;-7.30;99.90
22698;DHT22;11516;51.612;7.510;2022-12-18T01:08:59;-7.40;99.90
22698;DHT22;11516;51.612;7.510;2022-12-18T01:11:24;-7.40;99.90
22698;DHT22;11516;51.612;7.510;2022-12-18T01:13:52;-7.40;99.90
22698;DHT22;11516;51.612;7.510;2022-12-18T01:16:17;-7.40;99.90
22698;DHT22;11516;51.612;7.510;2022-12-18T01:18:44;-7.40;99.90
22698;DHT22;11516;51.612;7.510;2022-12-18T01:21:13;-7.40;99.90
22698;DHT22;11516;51.612;7.510;2022-12-18T01:23:38;-7.40;99.90
22698;DHT22;11516;51.612;7.510;2022-12-18T01:26:09;-7.40;99.90
22698;DHT22;11516;51.612;7.510;2022-12-18T01:28:35;-7.40;99.90
22698;DHT22;11516;51.612;7.510;2022-12-18T01:31:21;-7.50;99.90
22698;DHT22;11516;51.612;7.510;2022-12-18T01:33:48;-7.80;99.90
22698;DHT22;11516;51.612;7.510;2022-12-18T01:36:19;-7.80;99.90
22698;DHT22;11516;51.612;7.510;2022-12-18T01:38:45;-7.70;99.90
22698;DHT22;11516;51.612;7.510;2022-12-18T01:41:11;-7.70;99.90
22698;DHT22;11516;51.612;7.510;2022-12-18T01:43:55;-7.60;99.90
22698;DHT22;11516;51.612;7.510;2022-12-18T01:46:23;-7.60;99.90
22698;DHT22;11516;51.612;7.510;2022-12-18T01:48:52;-7.60;99.90
22698;DHT22;11516;51.612;7.510;2022-12-18T01:51:19;-7.60;99.90
22698;DHT22;11516;51.612;7.510;2022-12-18T01:53:47;-7.60;99.90
22698;DHT22;11516;51.612;7.510;2022-12-18T01:56:15;-7.60;99.90
22698;DHT22;11516;51.612;7.510;2022-12-18T02:01:06;-7.80;99.90
22698;DHT22;11516;51.612;7.510;2022-12-18T02:03:32;-7.70;99.90
22698;DHT22;11516;51.612;7.510;2022-12-18T02:06:15;-7.70;99.90
22698;DHT22;11516;51.612;7.510;2022-12-18T02:11:44;-7.60;99.90
22698;DHT22;11516;51.612;7.510;2022-12-18T02:17:23;-7.60;99.90
22698;DHT22;11516;51.612;7.510;2022-12-18T02:22:44;-7.60;99.90
22698;DHT22;11516;51.612;7.510;2022-12-18T02:25:39;-7.60;99.90
22698;DHT22;11516;51.612;7.510;2022-12-18T02:28:09;-7.60;99.90
22698;DHT22;11516;51.612;7.510;2022-12-18T02:30:37;-7.60;99.90
22698;DHT22;11516;51.612;7.510;2022-12-18T02:33:06;-7.60;99.90
22698;DHT22;11516;51.612;7.510;2022-12-18T02:35:34;-7.60;99.90
22698;DHT22;11516;51.612;7.510;2022-12-18T02:38:03;-7.60;99.90
22698;DHT22;11516;51.612;7.510;2022-12-18T02:40:30;-7.60;99.90
22698;DHT22;11516;51.612;7.510;2022-12-18T02:42:55;-7.60;99.90
22698;DHT22;11516;51.612;7.510;2022-12-18T02:45:27;-7.60;99.90
22698;DHT22;11516;51.612;7.510;2022-12-18T02:47:52;-7.60;99.90
22698;DHT22;11516;51.612;7.510;2022-12-18T02:50:31;-7.60;99.90
22698;DHT22;11516;51.612;7.510;2022-12-18T02:56:28;-7.60;99.90
22698;DHT22;11516;51.612;7.510;2022-12-18T02:59:12;-7.60;99.90
22698;DHT22;11516;51.612;7.510;2022-12-18T03:04:16;-7.60;99.90
22698;DHT22;11516;51.612;7.510;2022-12-18T03:06:49;-7.60;99.90
22698;DHT22;11516;51.612;7.510;2022-12-18T03:09:20;-7.60;99.90
22698;DHT22;11516;51.612;7.510;2022-12-18T03:11:55;-7.60;99.90
22698;DHT22;11516;51.612;7.510;2022-12-18T03:14:41;-7.70;99.90
22698;DHT22;11516;51.612;7.510;2022-12-18T03:17:11;-7.70;99.90
22698;DHT22;11516;51.612;7.510;2022-12-18T03:19:38;-7.70;99.90
22698;DHT22;11516;51.612;7.510;2022-12-18T03:22:06;-7.70;99.90
22698;DHT22;11516;51.612;7.510;2022-12-18T03:24:33;-7.70;99.90
22698;DHT22;11516;51.612;7.510;2022-12-18T03:27:02;-7.70;99.90
22698;DHT22;11516;51.612;7.510;2022-12-18T03:29:38;-7.70;99.90
22698;DHT22;11516;51.612;7.510;2022-12-18T03:32:15;-7.70;99.90
22698;DHT22;11516;51.612;7.510;2022-12-18T03:34:44;-7.70;99.90
22698;DHT22;11516;51.612;7.510;2022-12-18T03:37:11;-7.70;99.90
22698;DHT22;11516;51.612;7.510;2022-12-18T03:39:37;-7.70;99.90
22698;DHT22;11516;51.612;7.510;2022-12-18T03:50:16;-7.70;99.90
22698;DHT22;11516;51.612;7.510;2022-12-18T03:55:33;-7.70;99.90
22698;DHT22;11516;51.612;7.510;2022-12-18T03:58:01;-7.70;99.90
22698;DHT22;11516;51.612;7.510;2022-12-18T04:00:28;-7.70;99.90
22698;DHT22;11516;51.612;7.510;2022-12-18T04:02:55;-7.30;99.90
22698;DHT22;11516;51.612;7.510;2022-12-18T04:05:23;-7.80;99.90
22698;DHT22;11516;51.612;7.510;2022-12-18T04:07:50;-7.80;99.90
22698;DHT22;11516;51.612;7.510;2022-12-18T04:10:17;-7.70;99.90
22698;DHT22;11516;51.612;7.510;2022-12-18T04:12:43;-7.70;99.90
22698;DHT22;11516;51.612;7.510;2022-12-18T04:15:10;-7.80;99.90
22698;DHT22;11516;51.612;7.510;2022-12-18T04:17:37;-7.80;99.90
22698;DHT22;11516;51.612;7.510;2022-12-18T04:20:04;-7.80;99.90
22698;DHT22;11516;51.612;7.510;2022-12-18T04:22:29;-7.80;99.90
22698;DHT22;11516;51.612;7.510;2022-12-18T04:24:55;-7.70;99.90
22698;DHT22;11516;51.612;7.510;2022-12-18T04:27:21;-7.70;99.90
22698;DHT22;11516;51.612;7.510;2022-12-18T04:29:46;-7.70;99.90
22698;DHT22;11516;51.612;7.510;2022-12-18T04:32:12;-7.70;99.90
22698;DHT22;11516;51.612;7.510;2022-12-18T04:34:37;-7.60;99.90
22698;DHT22;11516;51.612;7.510;2022-12-18T04:37:03;-7.60;99.90
22698;DHT22;11516;51.612;7.510;2022-12-18T04:39:29;-7.70;99.90
22698;DHT22;11516;51.612;7.510;2022-12-18T04:41:54;-7.70;99.90
22698;DHT22;11516;51.612;7.510;2022-12-18T04:44:20;-7.70;99.90
22698;DHT22;11516;51.612;7.510;2022-12-18T04:46:45;-7.60;99.90
22698;DHT22;11516;51.612;7.510;2022-12-18T04:49:11;-7.70;99.90
22698;DHT22;11516;51.612;7.510;2022-12-18T04:51:37;-7.70;99.90
22698;DHT22;11516;51.612;7.510;2022-12-18T04:54:03;-7.70;99.90
22698;DHT22;11516;51.612;7.510;2022-12-18T04:56:30;-7.70;99.90
22698;DHT22;11516;51.612;7.510;2022-12-18T04:58:56;-7.70;99.90
22698;DHT22;11516;51.612;7.510;2022-12-18T05:01:22;-7.70;99.90
22698;DHT22;11516;51.612;7.510;2022-12-18T05:03:47;-7.70;99.90
22698;DHT22;11516;51.612;7.510;2022-12-18T05:06:13;-7.70;99.90
22698;DHT22;11516;51.612;7.510;2022-12-18T05:08:38;-7.80;99.90
22698;DHT22;11516;51.612;7.510;2022-12-18T05:11:10;-7.80;99.90
22698;DHT22;11516;51.612;7.510;2022-12-18T05:13:36;-7.70;99.90
22698;DHT22;11516;51.612;7.510;2022-12-18T05:16:04;-7.80;99.90
22698;DHT22;11516;51.612;7.510;2022-12-18T05:18:30;-7.80;99.90
22698;DHT22;11516;51.612;7.510;2022-12-18T05:20:55;-7.80;99.90
22698;DHT22;11516;51.612;7.510;2022-12-18T05:23:22;-7.80;99.90
22698;DHT22;11516;51.612;7.510;2022-12-18T05:25:56;-7.80;99.90
22698;DHT22;11516;51.612;7.510;2022-12-18T05:28:23;-7.90;99.90
22698;DHT22;11516;51.612;7.510;2022-12-18T05:30:54;-7.90;99.90
22698;DHT22;11516;51.612;7.510;2022-12-18T05:33:21;-7.90;99.90
22698;DHT22;11516;51.612;7.510;2022-12-18T05:35:58;-7.90;99.90
22698;DHT22;11516;51.612;7.510;2022-12-18T05:38:25;-7.90;99.90
22698;DHT22;11516;51.612;7.510;2022-12-18T05:40:52;-7.90;99.90
22698;DHT22;11516;51.612;7.510;2022-12-18T05:43:18;-7.90;99.90
22698;DHT22;11516;51.612;7.510;2022-12-18T05:45:45;-7.90;99.90
22698;DHT22;11516;51.612;7.510;2022-12-18T05:48:10;-7.90;99.90
22698;DHT22;11516;51.612;7.510;2022-12-18T05:50:39;-7.90;99.90
22698;DHT22;11516;51.612;7.510;2022-12-18T05:53:05;-7.90;99.90
22698;DHT22;11516;51.612;7.510;2022-12-18T05:55:39;-7.90;99.90
22698;DHT22;11516;51.612;7.510;2022-12-18T05:58:06;-7.90;99.90
22698;DHT22;11516;51.612;7.510;2022-12-18T06:00:33;-7.80;99.90
22698;DHT22;11516;51.612;7.510;2022-12-18T06:03:00;-7.90;99.90
22698;DHT22;11516;51.612;7.510;2022-12-18T06:05:26;-7.90;99.90
22698;DHT22;11516;51.612;7.510;2022-12-18T06:07:52;-7.90;99.90
22698;DHT22;11516;51.612;7.510;2022-12-18T06:10:18;-7.90;99.90
22698;DHT22;11516;51.612;7.510;2022-12-18T06:12:43;-8.00;99.90
22698;DHT22;11516;51.612;7.510;2022-12-18T06:15:09;-8.20;99.90
22698;DHT22;11516;51.612;7.510;2022-12-18T06:17:36;-8.10;99.90
22698;DHT22;11516;51.612;7.510;2022-12-18T06:20:02;-8.00;99.90
22698;DHT22;11516;51.612;7.510;2022-12-18T06:22:30;-8.10;99.90
22698;DHT22;11516;51.612;7.510;2022-12-18T06:24:56;-8.10;99.90
22698;DHT22;11516;51.612;7.510;2022-12-18T06:27:21;-8.20;99.90
22698;DHT22;11516;51.612;7.510;2022-12-18T06:29:47;-8.10;99.90
22698;DHT22;11516;51.612;7.510;2022-12-18T06:32:12;-8.10;99.90
22698;DHT22;11516;51.612;7.510;2022-12-18T06:34:38;-8.00;99.90
22698;DHT22;11516;51.612;7.510;2022-12-18T06:37:04;-7.90;99.90
22698;DHT22;11516;51.612;7.510;2022-12-18T06:39:29;-7.90;99.90
22698;DHT22;11516;51.612;7.510;2022-12-18T06:41:55;-8.00;99.90
22698;DHT22;11516;51.612;7.510;2022-12-18T06:44:20;-7.90;99.90
22698;DHT22;11516;51.612;7.510;2022-12-18T06:46:46;-7.90;99.90
22698;DHT22;11516;51.612;7.510;2022-12-18T06:49:12;-7.80;99.90
22698;DHT22;11516;51.612;7.510;2022-12-18T06:51:37;-7.60;99.90
22698;DHT22;11516;51.612;7.510;2022-12-18T06:54:03;-7.80;99.90
22698;DHT22;11516;51.612;7.510;2022-12-18T06:56:29;-7.80;99.90
22698;DHT22;11516;51.612;7.510;2022-12-18T06:58:54;-7.80;99.90
22698;DHT22;11516;51.612;7.510;2022-12-18T07:01:20;-8.00;99.90
22698;DHT22;11516;51.612;7.510;2022-12-18T07:03:46;-7.90;99.90
22698;DHT22;11516;51.612;7.510;2022-12-18T07:06:19;-7.80;99.90
22698;DHT22;11516;51.612;7.510;2022-12-18T07:08:46;-7.80;99.90
22698;DHT22;11516;51.612;7.510;2022-12-18T07:11:12;-7.70;99.90
22698;DHT22;11516;51.612;7.510;2022-12-18T07:13:38;-7.80;99.90
22698;DHT22;11516;51.612;7.510;2022-12-18T07:16:09;-7.90;99.90
22698;DHT22;11516;51.612;7.510;2022-12-18T07:18:35;-8.00;99.90
22698;DHT22;11516;51.612;7.510;2022-12-18T07:21:09;-7.90;99.90
22698;DHT22;11516;51.612;7.510;2022-12-18T07:23:35;-7.80;99.90
22698;DHT22;11516;51.612;7.510;2022-12-18T07:26:03;-7.30;99.90
22698;DHT22;11516;51.612;7.510;2022-12-18T07:28:29;-7.70;99.90
22698;DHT22;11516;51.612;7.510;2022-12-18T07:30:55;-7.70;99.90
22698;DHT22;11516;51.612;7.510;2022-12-18T07:33:21;-7.70;99.90
22698;DHT22;11516;51.612;7.510;2022-12-18T07:35:46;-7.60;99.90
22698;DHT22;11516;51.612;7.510;2022-12-18T07:38:12;-7.50;99.90
22698;DHT22;11516;51.612;7.510;2022-12-18T07:40:37;-7.40;99.90
22698;DHT22;11516;51.612;7.510;2022-12-18T07:43:02;-7.40;99.90
22698;DHT22;11516;51.612;7.510;2022-12-18T07:45:29;-7.30;99.90
22698;DHT22;11516;51.612;7.510;2022-12-18T07:47:55;-7.30;99.90
22698;DHT22;11516;51.612;7.510;2022-12-18T07:50:20;-7.20;99.90
22698;DHT22;11516;51.612;7.510;2022-12-18T07:52:46;-7.10;99.90
22698;DHT22;11516;51.612;7.510;2022-12-18T07:55:11;-7.00;99.90
22698;DHT22;11516;51.612;7.510;2022-12-18T07:57:37;-7.00;99.90
22698;DHT22;11516;51.612;7.510;2022-12-18T08:00:03;-6.90;99.90
22698;DHT22;11516;51.612;7.510;2022-12-18T08:02:31;-6.90;99.90
22698;DHT22;11516;51.612;7.510;2022-12-18T08:04:56;-6.80;99.90
22698;DHT22;11516;51.612;7.510;2022-12-18T08:07:22;-6.80;99.90
22698;DHT22;11516;51.612;7.510;2022-12-18T08:09:47;-6.70;99.90
22698;DHT22;11516;51.612;7.510;2022-12-18T08:12:13;-6.60;99.90
22698;DHT22;11516;51.612;7.510;2022-12-18T08:14:38;-6.60;99.90
22698;DHT22;11516;51.612;7.510;2022-12-18T08:17:04;-6.50;99.90
22698;DHT22;11516;51.612;7.510;2022-12-18T08:19:29;-6.40;99.90
22698;DHT22;11516;51.612;7.510;2022-12-18T08:21:55;-6.30;99.90
22698;DHT22;11516;51.612;7.510;2022-12-18T08:24:20;-6.30;99.90
22698;DHT22;11516;51.612;7.510;2022-12-18T08:26:46;-6.30;99.90
22698;DHT22;11516;51.612;7.510;2022-12-18T08:29:11;-6.30;99.90
22698;DHT22;11516;51.612;7.510;2022-12-18T08:31:37;-6.20;99.90
22698;DHT22;11516;51.612;7.510;2022-12-18T08:34:02;-6.10;99.90
22698;DHT22;11516;51.612;7.510;2022-12-18T08:36:28;-6.00;99.90
22698;DHT22;11516;51.612;7.510;2022-12-18T08:38:54;-5.90;99.90
22698;DHT22;11516;51.612;7.510;2022-12-18T08:41:19;-5.90;99.90
22698;DHT22;11516;51.612;7.510;2022-12-18T08:43:45;-5.80;99.90
22698;DHT22;11516;51.612;7.510;2022-12-18T08:46:36;-5.70;99.90
22698;DHT22;11516;51.612;7.510;2022-12-18T08:49:03;-5.60;99.90
22698;DHT22;11516;51.612;7.510;2022-12-18T08:51:28;-5.50;99.90
22698;DHT22;11516;51.612;7.510;2022-12-18T08:53:54;-5.50;99.90
22698;DHT22;11516;51.612;7.510;2022-12-18T08:56:19;-5.40;99.90
22698;DHT22;11516;51.612;7.510;2022-12-18T08:58:46;-5.20;99.90
22698;DHT22;11516;51.612;7.510;2022-12-18T09:01:12;-5.10;99.90
22698;DHT22;11516;51.612;7.510;2022-12-18T09:03:39;-5.10;99.90
22698;DHT22;11516;51.612;7.510;2022-12-18T09:06:05;-5.00;99.90
22698;DHT22;11516;51.612;7.510;2022-12-18T09:08:31;-5.00;99.90
22698;DHT22;11516;51.612;7.510;2022-12-18T09:10:56;-5.00;99.90
22698;DHT22;11516;51.612;7.510;2022-12-18T09:13:22;-4.90;99.90
22698;DHT22;11516;51.612;7.510;2022-12-18T09:15:53;-4.80;99.90
22698;DHT22;11516;51.612;7.510;2022-12-18T09:18:20;-4.70;99.90
22698;DHT22;11516;51.612;7.510;2022-12-18T09:20:46;-4.70;99.90
22698;DHT22;11516;51.612;7.510;2022-12-18T09:23:13;-4.50;99.90
22698;DHT22;11516;51.612;7.510;2022-12-18T09:25:38;-4.40;99.90
22698;DHT22;11516;51.612;7.510;2022-12-18T09:28:13;-4.40;99.90
22698;DHT22;11516;51.612;7.510;2022-12-18T09:30:40;-4.30;99.90
22698;DHT22;11516;51.612;7.510;2022-12-18T09:33:06;-4.20;99.90
22698;DHT22;11516;51.612;7.510;2022-12-18T09:35:31;-4.20;99.90
22698;DHT22;11516;51.612;7.510;2022-12-18T09:37:57;-4.10;99.90
22698;DHT22;11516;51.612;7.510;2022-12-18T09:40:25;-4.10;99.90
22698;DHT22;11516;51.612;7.510;2022-12-18T09:42:58;-4.00;99.90
22698;DHT22;11516;51.612;7.510;2022-12-18T09:45:25;-3.90;99.90
22698;DHT22;11516;51.612;7.510;2022-12-18T09:47:52;-3.90;99.90
22698;DHT22;11516;51.612;7.510;2022-12-18T09:50:33;-3.90;99.90
22698;DHT22;11516;51.612;7.510;2022-12-18T09:53:06;-3.90;99.90
22698;DHT22;11516;51.612;7.510;2022-12-18T09:55:39;-3.70;99.90
22698;DHT22;11516;51.612;7.510;2022-12-18T09:58:26;-3.70;99.90
22698;DHT22;11516;51.612;7.510;2022-12-18T10:00:54;-3.50;99.90
22698;DHT22;11516;51.612;7.510;2022-12-18T10:03:20;-3.50;99.90
22698;DHT22;11516;51.612;7.510;2022-12-18T10:06:20;-3.30;99.90
22698;DHT22;11516;51.612;7.510;2022-12-18T10:09:09;-3.10;99.90
22698;DHT22;11516;51.612;7.510;2022-12-18T10:12:15;-3.00;99.90
22698;DHT22;11516;51.612;7.510;2022-12-18T10:14:51;-2.80;99.90
22698;DHT22;11516;51.612;7.510;2022-12-18T10:20:27;-2.50;99.90
22698;DHT22;11516;51.612;7.510;2022-12-18T10:26:08;-2.20;99.90
22698;DHT22;11516;51.612;7.510;2022-12-18T10:28:36;-2.20;99.90
22698;DHT22;11516;51.612;7.510;2022-12-18T10:31:04;-2.00;99.90
22698;DHT22;11516;51.612;7.510;2022-12-18T10:33:31;-2.00;99.90
22698;DHT22;11516;51.612;7.510;2022-12-18T10:35:57;-1.80;99.90
22698;DHT22;11516;51.612;7.510;2022-12-18T10:38:28;-1.70;99.90
22698;DHT22;11516;51.612;7.510;2022-12-18T10:40:55;-1.50;99.90
22698;DHT22;11516;51.612;7.510;2022-12-18T10:46:00;-1.50;99.90
22698;DHT22;11516;51.612;7.510;2022-12-18T10:48:27;-1.40;99.90
22698;DHT22;11516;51.612;7.510;2022-12-18T10:50:53;-1.30;99.90
22698;DHT22;11516;51.612;7.510;2022-12-18T10:53:37;-0.50;99.90
22698;DHT22;11516;51.612;7.510;2022-12-18T10:56:05;-1.30;99.90
22698;DHT22;11516;51.612;7.510;2022-12-18T10:58:36;-1.30;99.90
22698;DHT22;11516;51.612;7.510;2022-12-18T11:01:14;-1.20;99.90
22698;DHT22;11516;51.612;7.510;2022-12-18T11:06:21;-1.00;99.90
22698;DHT22;11516;51.612;7.510;2022-12-18T11:09:18;-0.40;99.90
22698;DHT22;11516;51.612;7.510;2022-12-18T11:11:53;-0.90;99.90
22698;DHT22;11516;51.612;7.510;2022-12-18T11:14:29;-0.90;99.90
22698;DHT22;11516;51.612;7.510;2022-12-18T11:16:58;-0.90;99.90
22698;DHT22;11516;51.612;7.510;2022-12-18T11:19:37;-0.30;99.90
22698;DHT22;11516;51.612;7.510;2022-12-18T11:22:22;-0.50;99.90
22698;DHT22;11516;51.612;7.510;2022-12-18T11:27:26;-0.30;99.90
22698;DHT22;11516;51.612;7.510;2022-12-18T11:30:20;-0.20;99.90
22698;DHT22;11516;51.612;7.510;2022-12-18T11:33:11;-0.20;99.90
22698;DHT22;11516;51.612;7.510;2022-12-18T11:35:55;-0.20;99.90
22698;DHT22;11516;51.612;7.510;2022-12-18T11:38:23;-0.20;99.90
22698;DHT22;11516;51.612;7.510;2022-12-18T11:41:04;-0.10;99.90
22698;DHT22;11516;51.612;7.510;2022-12-18T11:43:39;0.00;99.90
22698;DHT22;11516;51.612;7.510;2022-12-18T11:46:26;0.00;99.90
22698;DHT22;11516;51.612;7.510;2022-12-18T11:49:11;0.00;99.90
22698;DHT22;11516;51.612;7.510;2022-12-18T11:51:51;0.10;99.90
22698;DHT22;11516;51.612;7.510;2022-12-18T11:54:21;0.10;99.90
22698;DHT22;11516;51.612;7.510;2022-12-18T11:56:56;0.00;99.90
22698;DHT22;11516;51.612;7.510;2022-12-18T12:02:40;-0.10;99.90
22698;DHT22;11516;51.612;7.510;2022-12-18T12:05:14;-0.10;99.90
22698;DHT22;11516;51.612;7.510;2022-12-18T12:10:39;-0.20;99.90
22698;DHT22;11516;51.612;7.510;2022-12-18T12:19:02;-0.10;99.90
22698;DHT22;11516;51.612;7.510;2022-12-18T12:21:36;-0.10;99.90
22698;DHT22;11516;51.612;7.510;2022-12-18T12:24:10;-0.10;99.90
22698;DHT22;11516;51.612;7.510;2022-12-18T12:29:48;-0.20;99.90
22698;DHT22;11516;51.612;7.510;2022-12-18T12:40:56;-0.10;99.90
22698;DHT22;11516;51.612;7.510;2022-12-18T12:43:41;-0.20;99.90
22698;DHT22;11516;51.612;7.510;2022-12-18T12:46:10;-0.20;99.90
22698;DHT22;11516;51.612;7.510;2022-12-18T12:49:03;-0.10;99.90
22698;DHT22;11516;51.612;7.510;2022-12-18T12:51:40;-0.10;99.90
22698;DHT22;11516;51.612;7.510;2022-12-18T12:54:14;1.20;99.90
22698;DHT22;11516;51.612;7.510;2022-12-18T12:57:21;-0.10;99.90
22698;DHT22;11516;51.612;7.510;2022-12-18T13:04:56;-0.10;99.90
22698;DHT22;11516;51.612;7.510;2022-12-18T13:07:38;-0.10;99.90
22698;DHT22;11516;51.612;7.510;2022-12-18T13:12:58;-0.20;99.90
22698;DHT22;11516;51.612;7.510;2022-12-18T13:15:34;-0.20;99.90
22698;DHT22;11516;51.612;7.510;2022-12-18T13:25:53;-0.10;99.90
22698;DHT22;11516;51.612;7.510;2022-12-18T13:28:23;-0.10;99.90
22698;DHT22;11516;51.612;7.510;2022-12-18T13:30:57;-0.10;99.90
22698;DHT22;11516;51.612;7.510;2022-12-18T13:38:35;-0.10;99.90
22698;DHT22;11516;51.612;7.510;2022-12-18T13:43:53;0.00;99.90
22698;DHT22;11516;51.612;7.510;2022-12-18T13:46:47;0.00;99.90
22698;DHT22;11516;51.612;7.510;2022-12-18T13:51:51;0.00;99.90
22698;DHT22;11516;51.612;7.510;2022-12-18T13:56:46;0.10;99.90
22698;DHT22;11516;51.612;7.510;2022-12-18T13:59:26;0.10;99.90
22698;DHT22;11516;51.612;7.510;2022-12-18T14:01:57;0.10;99.90
22698;DHT22;11516;51.612;7.510;2022-12-18T14:04:28;0.00;99.90
22698;DHT22;11516;51.612;7.510;2022-12-18T14:07:04;0.10;99.90
22698;DHT22;11516;51.612;7.510;2022-12-18T14:09:36;0.10;99.90
22698;DHT22;11516;51.612;7.510;2022-12-18T14:12:02;0.30;99.90
22698;DHT22;11516;51.612;7.510;2022-12-18T14:14:48;0.00;99.90
22698;DHT22;11516;51.612;7.510;2022-12-18T14:17:16;0.00;99.90
22698;DHT22;11516;51.612;7.510;2022-12-18T14:19:47;0.00;99.90
22698;DHT22;11516;51.612;7.510;2022-12-18T14:22:22;0.00;99.90
22698;DHT22;11516;51.612;7.510;2022-12-18T14:25:15;0.00;99.90
22698;DHT22;11516;51.612;7.510;2022-12-18T14:28:25;0.00;99.90
22698;DHT22;11516;51.612;7.510;2022-12-18T14:30:44;0.00;99.90
22698;DHT22;11516;51.612;7.510;2022-12-18T14:33:18;0.00;99.90
22698;DHT22;11516;51.612;7.510;2022-12-18T14:36:00;0.00;99.90
22698;DHT22;11516;51.612;7.510;2022-12-18T14:38:37;-0.10;99.90
22698;DHT22;11516;51.612;7.510;2022-12-18T14:41:05;-0.10;99.90
22698;DHT22;11516;51.612;7.510;2022-12-18T14:43:35;-0.10;99.90
22698;DHT22;11516;51.612;7.510;2022-12-18T14:46:02;-0.10;99.90
22698;DHT22;11516;51.612;7.510;2022-12-18T14:48:39;0.00;99.90
22698;DHT22;11516;51.612;7.510;2022-12-18T14:51:15;-0.10;99.90
22698;DHT22;11516;51.612;7.510;2022-12-18T14:53:56;-0.10;99.90
22698;DHT22;11516;51.612;7.510;2022-12-18T14:56:25;-0.10;99.90
22698;DHT22;11516;51.612;7.510;2022-12-18T14:59:14;-0.10;99.90
22698;DHT22;11516;51.612;7.510;2022-12-18T15:02:10;-0.10;99.90
22698;DHT22;11516;51.612;7.510;2022-12-18T15:04:40;-0.20;99.90
22698;DHT22;11516;51.612;7.510;2022-12-18T15:07:26;-0.20;99.90
22698;DHT22;11516;51.612;7.510;2022-12-18T15:10:14;-0.20;99.90
22698;DHT22;11516;51.612;7.510;2022-12-18T15:20:24;-0.20;99.90
22698;DHT22;11516;51.612;7.510;2022-12-18T15:22:49;-0.20;99.90
22698;DHT22;11516;51.612;7.510;2022-12-18T15:25:33;-0.20;99.90
22698;DHT22;11516;51.612;7.510;2022-12-18T15:27:59;-0.10;99.90
22698;DHT22;11516;51.612;7.510;2022-12-18T15:30:25;-0.10;99.90
22698;DHT22;11516;51.612;7.510;2022-12-18T15:32:52;-0.10;99.90
22698;DHT22;11516;51.612;7.510;2022-12-18T15:35:37;-0.10;99.90
22698;DHT22;11516;51.612;7.510;2022-12-18T15:38:03;0.00;99.90
22698;DHT22;11516;51.612;7.510;2022-12-18T15:40:28;-0.10;99.90
22698;DHT22;11516;51.612;7.510;2022-12-18T15:42:54;-0.10;99.90
22698;DHT22;11516;51.612;7.510;2022-12-18T15:45:38;0.00;99.90
22698;DHT22;11516;51.612;7.510;2022-12-18T15:48:19;-0.10;99.90
22698;DHT22;11516;51.612;7.510;2022-12-18T15:50:46;-0.10;99.90
22698;DHT22;11516;51.612;7.510;2022-12-18T15:53:11;0.00;99.90
22698;DHT22;11516;51.612;7.510;2022-12-18T15:55:37;0.00;99.90
22698;DHT22;11516;51.612;7.510;2022-12-18T15:58:21;1.30;99.90
22698;DHT22;11516;51.612;7.510;2022-12-18T16:00:47;0.00;99.90
22698;DHT22;11516;51.612;7.510;2022-12-18T16:03:12;0.00;99.90
22698;DHT22;11516;51.612;7.510;2022-12-18T16:05:38;0.00;99.90
22698;DHT22;11516;51.612;7.510;2022-12-18T16:08:03;0.00;99.90
22698;DHT22;11516;51.612;7.510;2022-12-18T16:10:29;0.00;99.90
22698;DHT22;11516;51.612;7.510;2022-12-18T16:12:55;-0.10;99.90
22698;DHT22;11516;51.612;7.510;2022-12-18T16:15:20;-0.10;99.90
22698;DHT22;11516;51.612;7.510;2022-12-18T16:17:46;-0.10;99.90
22698;DHT22;11516;51.612;7.510;2022-12-18T16:20:15;-0.10;99.90
22698;DHT22;11516;51.612;7.510;2022-12-18T16:22:41;-0.10;99.90
22698;DHT22;11516;51.612;7.510;2022-12-18T16:25:16;0.00;99.90
22698;DHT22;11516;51.612;7.510;2022-12-18T16:27:42;-0.10;99.90
22698;DHT22;11516;51.612;7.510;2022-12-18T16:30:15;-0.10;99.90
22698;DHT22;11516;51.612;7.510;2022-12-18T16:32:41;-0.10;99.90
22698;DHT22;11516;51.612;7.510;2022-12-18T16:35:09;-0.10;99.90
22698;DHT22;11516;51.612;7.510;2022-12-18T16:37:35;-0.10;99.90
22698;DHT22;11516;51.612;7.510;2022-12-18T16:40:00;0.10;99.90
22698;DHT22;11516;51.612;7.510;2022-12-18T16:42:26;-0.10;99.90
22698;DHT22;11516;51.612;7.510;2022-12-18T16:44:51;0.00;99.90
22698;DHT22;11516;51.612;7.510;2022-12-18T16:47:18;-0.10;99.90
22698;DHT22;11516;51.612;7.510;2022-12-18T16:49:44;-0.10;99.90
22698;DHT22;11516;51.612;7.510;2022-12-18T16:52:10;-0.10;99.90
22698;DHT22;11516;51.612;7.510;2022-12-18T16:54:35;-0.10;99.90
22698;DHT22;11516;51.612;7.510;2022-12-18T16:57:02;-0.10;99.90
22698;DHT22;11516;51.612;7.510;2022-12-18T16:59:27;-0.10;99.90
22698;DHT22;11516;51.612;7.510;2022-12-18T17:01:54;-0.10;99.90
22698;DHT22;11516;51.612;7.510;2022-12-18T17:04:20;-0.10;99.90
22698;DHT22;11516;51.612;7.510;2022-12-18T17:06:46;-0.10;99.90
22698;DHT22;11516;51.612;7.510;2022-12-18T17:09:17;-0.10;99.90
22698;DHT22;11516;51.612;7.510;2022-12-18T17:11:50;0.00;99.90
22698;DHT22;11516;51.612;7.510;2022-12-18T17:14:18;-0.10;99.90
22698;DHT22;11516;51.612;7.510;2022-12-18T17:16:44;-0.10;99.90
22698;DHT22;11516;51.612;7.510;2022-12-18T17:19:11;-0.10;99.90
22698;DHT22;11516;51.612;7.510;2022-12-18T17:21:37;-0.10;99.90
22698;DHT22;11516;51.612;7.510;2022-12-18T17:24:03;-0.10;99.90
22698;DHT22;11516;51.612;7.510;2022-12-18T17:26:29;-0.10;99.90
22698;DHT22;11516;51.612;7.510;2022-12-18T17:28:58;0.00;99.90
22698;DHT22;11516;51.612;7.510;2022-12-18T17:31:25;-0.10;99.90